sensor_id;sensor_type;location;lat;lon;timestamp;P1;durP1;ratioP1;P2;durP2;ratioP2
76409;SDS011;65238;42.662;23.280;2024-03-07T00:02:11;51.20;;;24.75;;
76409;SDS011;65238;42.662;23.280;2024-03-07T00:04:37;43.80;;;24.40;;
76409;SDS011;65238;42.662;23.280;2024-03-07T00:07:03;46.63;;;24.65;;
76409;SDS011;65238;42.662;23.280;2024-03-07T00:09:31;45.65;;;23.98;;
76409;SDS011;65238;42.662;23.280;2024-03-07T00:11:57;37.83;;;23.27;;
76409;SDS011;65238;42.662;23.280;2024-03-07T00:14:23;44.70;;;24.67;;
76409;SDS011;65238;42.662;23.280;2024-03-07T00:16:52;40.30;;;23.02;;
76409;SDS011;65238;42.662;23.280;2024-03-07T00:19:18;40.42;;;23.05;;
76409;SDS011;65238;42.662;23.280;2024-03-07T00:21:44;38.85;;;21.85;;
76409;SDS011;65238;42.662;23.280;2024-03-07T00:24:09;40.08;;;22.85;;
76409;SDS011;65238;42.662;23.280;2024-03-07T00:26:35;39.53;;;23.27;;
76409;SDS011;65238;42.662;23.280;2024-03-07T00:29:01;39.88;;;23.55;;
76409;SDS011;65238;42.662;23.280;2024-03-07T00:31:27;37.85;;;23.35;;
76409;SDS011;65238;42.662;23.280;2024-03-07T00:33:54;43.22;;;23.55;;
76409;SDS011;65238;42.662;23.280;2024-03-07T00:36:21;45.65;;;23.92;;
76409;SDS011;65238;42.662;23.280;2024-03-07T00:38:47;42.47;;;24.80;;
76409;SDS011;65238;42.662;23.280;2024-03-07T00:41:12;42.03;;;24.60;;
76409;SDS011;65238;42.662;23.280;2024-03-07T00:43:38;41.33;;;24.23;;
76409;SDS011;65238;42.662;23.280;2024-03-07T00:46:03;43.70;;;23.48;;
76409;SDS011;65238;42.662;23.280;2024-03-07T00:48:31;41.60;;;24.02;;
76409;SDS011;65238;42.662;23.280;2024-03-07T00:50:56;40.85;;;23.98;;
76409;SDS011;65238;42.662;23.280;2024-03-07T00:53:22;35.75;;;22.42;;
76409;SDS011;65238;42.662;23.280;2024-03-07T00:55:47;37.88;;;21.90;;
76409;SDS011;65238;42.662;23.280;2024-03-07T00:58:13;37.28;;;20.80;;
76409;SDS011;65238;42.662;23.280;2024-03-07T01:00:38;37.75;;;23.17;;
76409;SDS011;65238;42.662;23.280;2024-03-07T01:03:08;38.50;;;21.48;;
76409;SDS011;65238;42.662;23.280;2024-03-07T01:05:36;37.22;;;22.98;;
76409;SDS011;65238;42.662;23.280;2024-03-07T01:08:03;39.53;;;22.50;;
76409;SDS011;65238;42.662;23.280;2024-03-07T01:10:30;34.42;;;20.65;;
76409;SDS011;65238;42.662;23.280;2024-03-07T01:12:55;30.55;;;18.67;;
76409;SDS011;65238;42.662;23.280;2024-03-07T01:15:25;32.58;;;19.23;;
76409;SDS011;65238;42.662;23.280;2024-03-07T01:17:51;30.40;;;19.15;;
76409;SDS011;65238;42.662;23.280;2024-03-07T01:20:16;33.28;;;17.40;;
76409;SDS011;65238;42.662;23.280;2024-03-07T01:22:42;28.33;;;17.45;;
76409;SDS011;65238;42.662;23.280;2024-03-07T01:25:07;30.48;;;17.80;;
76409;SDS011;65238;42.662;23.280;2024-03-07T01:27:33;30.90;;;18.33;;
76409;SDS011;65238;42.662;23.280;2024-03-07T01:29:58;33.55;;;18.27;;
76409;SDS011;65238;42.662;23.280;2024-03-07T01:32:23;30.38;;;18.25;;
76409;SDS011;65238;42.662;23.280;2024-03-07T01:34:49;30.42;;;17.55;;
76409;SDS011;65238;42.662;23.280;2024-03-07T01:37:15;25.13;;;15.82;;
76409;SDS011;65238;42.662;23.280;2024-03-07T01:39:41;31.25;;;17.90;;
76409;SDS011;65238;42.662;23.280;2024-03-07T01:42:06;33.38;;;19.13;;
76409;SDS011;65238;42.662;23.280;2024-03-07T01:44:33;33.15;;;19.25;;
76409;SDS011;65238;42.662;23.280;2024-03-07T01:46:59;31.17;;;19.30;;
76409;SDS011;65238;42.662;23.280;2024-03-07T01:49:29;31.20;;;19.13;;
76409;SDS011;65238;42.662;23.280;2024-03-07T01:51:55;32.33;;;18.58;;
76409;SDS011;65238;42.662;23.280;2024-03-07T01:54:22;33.67;;;18.20;;
76409;SDS011;65238;42.662;23.280;2024-03-07T01:56:47;29.60;;;17.92;;
76409;SDS011;65238;42.662;23.280;2024-03-07T01:59:13;31.65;;;18.98;;
76409;SDS011;65238;42.662;23.280;2024-03-07T02:01:39;29.15;;;17.55;;
76409;SDS011;65238;42.662;23.280;2024-03-07T02:04:04;30.55;;;17.65;;
76409;SDS011;65238;42.662;23.280;2024-03-07T02:06:30;32.42;;;18.52;;
76409;SDS011;65238;42.662;23.280;2024-03-07T02:08:57;28.95;;;17.88;;
76409;SDS011;65238;42.662;23.280;2024-03-07T02:11:22;30.52;;;17.88;;
76409;SDS011;65238;42.662;23.280;2024-03-07T02:13:49;31.30;;;18.13;;
76409;SDS011;65238;42.662;23.280;2024-03-07T02:16:14;29.58;;;17.35;;
76409;SDS011;65238;42.662;23.280;2024-03-07T02:18:39;34.58;;;18.08;;
76409;SDS011;65238;42.662;23.280;2024-03-07T02:21:08;29.80;;;17.65;;
76409;SDS011;65238;42.662;23.280;2024-03-07T02:23:37;31.98;;;19.42;;
76409;SDS011;65238;42.662;23.280;2024-03-07T02:26:02;26.85;;;15.57;;
76409;SDS011;65238;42.662;23.280;2024-03-07T02:28:29;29.02;;;17.08;;
76409;SDS011;65238;42.662;23.280;2024-03-07T02:30:54;28.00;;;16.20;;
76409;SDS011;65238;42.662;23.280;2024-03-07T02:33:20;26.20;;;15.30;;
76409;SDS011;65238;42.662;23.280;2024-03-07T02:35:45;24.17;;;14.27;;
76409;SDS011;65238;42.662;23.280;2024-03-07T02:38:11;32.53;;;17.42;;
76409;SDS011;65238;42.662;23.280;2024-03-07T02:40:36;26.80;;;13.50;;
76409;SDS011;65238;42.662;23.280;2024-03-07T02:43:01;24.48;;;13.75;;
76409;SDS011;65238;42.662;23.280;2024-03-07T02:45:29;22.80;;;15.10;;
76409;SDS011;65238;42.662;23.280;2024-03-07T02:47:55;22.48;;;13.82;;
76409;SDS011;65238;42.662;23.280;2024-03-07T02:50:21;23.20;;;14.38;;
76409;SDS011;65238;42.662;23.280;2024-03-07T02:52:49;19.77;;;11.82;;
76409;SDS011;65238;42.662;23.280;2024-03-07T02:55:17;19.13;;;10.85;;
76409;SDS011;65238;42.662;23.280;2024-03-07T02:57:43;11.38;;;6.88;;
76409;SDS011;65238;42.662;23.280;2024-03-07T03:00:10;9.85;;;6.15;;
76409;SDS011;65238;42.662;23.280;2024-03-07T03:02:47;8.63;;;5.32;;
76409;SDS011;65238;42.662;23.280;2024-03-07T03:05:14;8.57;;;5.30;;
76409;SDS011;65238;42.662;23.280;2024-03-07T03:07:40;9.40;;;5.28;;
76409;SDS011;65238;42.662;23.280;2024-03-07T03:10:06;8.15;;;5.43;;
76409;SDS011;65238;42.662;23.280;2024-03-07T03:12:36;11.35;;;6.80;;
76409;SDS011;65238;42.662;23.280;2024-03-07T03:15:02;9.40;;;6.20;;
76409;SDS011;65238;42.662;23.280;2024-03-07T03:17:31;9.35;;;6.07;;
76409;SDS011;65238;42.662;23.280;2024-03-07T03:19:56;8.63;;;5.20;;
76409;SDS011;65238;42.662;23.280;2024-03-07T03:22:21;5.63;;;4.07;;
76409;SDS011;65238;42.662;23.280;2024-03-07T03:24:47;6.05;;;3.78;;
76409;SDS011;65238;42.662;23.280;2024-03-07T03:27:12;6.07;;;3.75;;
76409;SDS011;65238;42.662;23.280;2024-03-07T03:29:38;4.30;;;3.10;;
76409;SDS011;65238;42.662;23.280;2024-03-07T03:32:05;4.28;;;2.88;;
76409;SDS011;65238;42.662;23.280;2024-03-07T03:34:32;5.38;;;3.15;;
76409;SDS011;65238;42.662;23.280;2024-03-07T03:36:58;4.97;;;3.20;;
76409;SDS011;65238;42.662;23.280;2024-03-07T03:39:24;4.85;;;3.33;;
76409;SDS011;65238;42.662;23.280;2024-03-07T03:41:52;6.70;;;3.55;;
76409;SDS011;65238;42.662;23.280;2024-03-07T03:44:17;5.72;;;3.45;;
76409;SDS011;65238;42.662;23.280;2024-03-07T03:46:43;6.55;;;3.97;;
76409;SDS011;65238;42.662;23.280;2024-03-07T03:49:09;6.53;;;4.25;;
76409;SDS011;65238;42.662;23.280;2024-03-07T03:51:35;7.82;;;4.07;;
76409;SDS011;65238;42.662;23.280;2024-03-07T03:54:01;5.20;;;3.13;;
76409;SDS011;65238;42.662;23.280;2024-03-07T03:56:26;7.72;;;3.75;;
76409;SDS011;65238;42.662;23.280;2024-03-07T03:58:52;5.80;;;3.58;;
76409;SDS011;65238;42.662;23.280;2024-03-07T04:01:17;5.43;;;3.70;;
76409;SDS011;65238;42.662;23.280;2024-03-07T04:03:42;7.50;;;3.95;;
76409;SDS011;65238;42.662;23.280;2024-03-07T04:06:11;8.13;;;4.55;;
76409;SDS011;65238;42.662;23.280;2024-03-07T04:08:37;7.78;;;4.40;;
76409;SDS011;65238;42.662;23.280;2024-03-07T04:11:02;6.95;;;4.63;;
76409;SDS011;65238;42.662;23.280;2024-03-07T04:13:28;8.52;;;5.38;;
76409;SDS011;65238;42.662;23.280;2024-03-07T04:15:55;9.38;;;5.88;;
76409;SDS011;65238;42.662;23.280;2024-03-07T04:18:21;8.82;;;5.65;;
76409;SDS011;65238;42.662;23.280;2024-03-07T04:20:46;7.82;;;5.22;;
76409;SDS011;65238;42.662;23.280;2024-03-07T04:23:12;8.43;;;5.32;;
76409;SDS011;65238;42.662;23.280;2024-03-07T04:25:37;9.95;;;5.97;;
76409;SDS011;65238;42.662;23.280;2024-03-07T04:28:03;8.55;;;5.10;;
76409;SDS011;65238;42.662;23.280;2024-03-07T04:30:30;8.38;;;5.60;;
76409;SDS011;65238;42.662;23.280;2024-03-07T04:32:56;11.00;;;6.32;;
76409;SDS011;65238;42.662;23.280;2024-03-07T04:35:23;12.60;;;6.70;;
76409;SDS011;65238;42.662;23.280;2024-03-07T04:37:52;9.80;;;6.45;;
76409;SDS011;65238;42.662;23.280;2024-03-07T04:40:18;9.80;;;6.63;;
76409;SDS011;65238;42.662;23.280;2024-03-07T04:42:47;8.98;;;6.22;;
76409;SDS011;65238;42.662;23.280;2024-03-07T04:45:14;11.77;;;7.55;;
76409;SDS011;65238;42.662;23.280;2024-03-07T04:47:40;11.52;;;7.78;;
76409;SDS011;65238;42.662;23.280;2024-03-07T04:50:06;15.23;;;9.45;;
76409;SDS011;65238;42.662;23.280;2024-03-07T04:52:32;13.00;;;8.43;;
76409;SDS011;65238;42.662;23.280;2024-03-07T04:54:58;13.48;;;8.18;;
76409;SDS011;65238;42.662;23.280;2024-03-07T04:57:23;13.18;;;8.85;;
76409;SDS011;65238;42.662;23.280;2024-03-07T04:59:49;10.93;;;6.35;;
76409;SDS011;65238;42.662;23.280;2024-03-07T05:02:15;7.32;;;5.20;;
76409;SDS011;65238;42.662;23.280;2024-03-07T05:04:40;8.00;;;5.13;;
76409;SDS011;65238;42.662;23.280;2024-03-07T05:07:06;5.82;;;3.70;;
76409;SDS011;65238;42.662;23.280;2024-03-07T05:09:31;4.85;;;2.60;;
76409;SDS011;65238;42.662;23.280;2024-03-07T05:11:58;2.92;;;2.08;;
76409;SDS011;65238;42.662;23.280;2024-03-07T05:14:24;1.83;;;1.30;;
76409;SDS011;65238;42.662;23.280;2024-03-07T05:16:52;1.05;;;0.90;;
76409;SDS011;65238;42.662;23.280;2024-03-07T05:19:30;1.73;;;1.20;;
76409;SDS011;65238;42.662;23.280;2024-03-07T05:21:57;1.85;;;1.13;;
76409;SDS011;65238;42.662;23.280;2024-03-07T05:24:23;2.58;;;1.40;;
76409;SDS011;65238;42.662;23.280;2024-03-07T05:26:48;1.77;;;1.40;;
76409;SDS011;65238;42.662;23.280;2024-03-07T05:29:14;2.97;;;1.50;;
76409;SDS011;65238;42.662;23.280;2024-03-07T05:31:40;2.67;;;1.50;;
76409;SDS011;65238;42.662;23.280;2024-03-07T05:34:12;2.63;;;1.50;;
76409;SDS011;65238;42.662;23.280;2024-03-07T05:36:38;1.73;;;1.48;;
76409;SDS011;65238;42.662;23.280;2024-03-07T05:39:11;1.92;;;1.40;;
76409;SDS011;65238;42.662;23.280;2024-03-07T05:41:40;3.63;;;1.55;;
76409;SDS011;65238;42.662;23.280;2024-03-07T05:44:07;2.00;;;1.42;;
76409;SDS011;65238;42.662;23.280;2024-03-07T05:46:38;2.08;;;1.30;;
76409;SDS011;65238;42.662;23.280;2024-03-07T05:49:15;1.73;;;1.42;;
76409;SDS011;65238;42.662;23.280;2024-03-07T05:51:45;2.22;;;1.70;;
76409;SDS011;65238;42.662;23.280;2024-03-07T05:54:11;2.22;;;1.38;;
76409;SDS011;65238;42.662;23.280;2024-03-07T05:56:40;1.90;;;1.38;;
76409;SDS011;65238;42.662;23.280;2024-03-07T05:59:06;2.50;;;1.35;;
76409;SDS011;65238;42.662;23.280;2024-03-07T06:01:35;1.77;;;1.40;;
76409;SDS011;65238;42.662;23.280;2024-03-07T06:04:00;2.35;;;1.50;;
76409;SDS011;65238;42.662;23.280;2024-03-07T06:06:27;2.80;;;1.65;;
76409;SDS011;65238;42.662;23.280;2024-03-07T06:08:53;1.52;;;1.38;;
76409;SDS011;65238;42.662;23.280;2024-03-07T06:11:19;3.00;;;1.58;;
76409;SDS011;65238;42.662;23.280;2024-03-07T06:13:46;2.13;;;1.67;;
76409;SDS011;65238;42.662;23.280;2024-03-07T06:16:12;3.67;;;2.22;;
76409;SDS011;65238;42.662;23.280;2024-03-07T06:18:39;2.78;;;1.58;;
76409;SDS011;65238;42.662;23.280;2024-03-07T06:21:05;3.75;;;1.85;;
76409;SDS011;65238;42.662;23.280;2024-03-07T06:23:31;4.47;;;2.67;;
76409;SDS011;65238;42.662;23.280;2024-03-07T06:25:56;3.45;;;1.85;;
76409;SDS011;65238;42.662;23.280;2024-03-07T06:28:23;2.90;;;2.10;;
76409;SDS011;65238;42.662;23.280;2024-03-07T06:30:49;4.40;;;1.85;;
76409;SDS011;65238;42.662;23.280;2024-03-07T06:33:14;5.03;;;2.40;;
76409;SDS011;65238;42.662;23.280;2024-03-07T06:35:41;2.78;;;2.00;;
76409;SDS011;65238;42.662;23.280;2024-03-07T06:38:07;3.97;;;2.17;;
76409;SDS011;65238;42.662;23.280;2024-03-07T06:40:37;3.65;;;2.25;;
76409;SDS011;65238;42.662;23.280;2024-03-07T06:43:05;5.60;;;2.60;;
76409;SDS011;65238;42.662;23.280;2024-03-07T06:45:35;3.78;;;2.40;;
76409;SDS011;65238;42.662;23.280;2024-03-07T06:48:02;4.90;;;2.95;;
76409;SDS011;65238;42.662;23.280;2024-03-07T06:50:29;5.00;;;3.20;;
76409;SDS011;65238;42.662;23.280;2024-03-07T06:52:55;4.78;;;2.85;;
76409;SDS011;65238;42.662;23.280;2024-03-07T06:55:21;4.22;;;2.25;;
76409;SDS011;65238;42.662;23.280;2024-03-07T06:57:47;5.38;;;2.45;;
76409;SDS011;65238;42.662;23.280;2024-03-07T07:00:13;8.90;;;2.33;;
76409;SDS011;65238;42.662;23.280;2024-03-07T07:02:39;4.22;;;3.08;;
76409;SDS011;65238;42.662;23.280;2024-03-07T07:05:06;5.43;;;3.25;;
76409;SDS011;65238;42.662;23.280;2024-03-07T07:07:36;5.82;;;3.40;;
76409;SDS011;65238;42.662;23.280;2024-03-07T07:10:03;4.70;;;2.90;;
76409;SDS011;65238;42.662;23.280;2024-03-07T07:12:29;6.28;;;3.15;;
76409;SDS011;65238;42.662;23.280;2024-03-07T07:14:55;4.85;;;3.00;;
76409;SDS011;65238;42.662;23.280;2024-03-07T07:17:20;3.75;;;2.50;;
76409;SDS011;65238;42.662;23.280;2024-03-07T07:19:46;4.88;;;3.05;;
76409;SDS011;65238;42.662;23.280;2024-03-07T07:22:11;6.97;;;3.40;;
76409;SDS011;65238;42.662;23.280;2024-03-07T07:24:38;6.03;;;3.75;;
76409;SDS011;65238;42.662;23.280;2024-03-07T07:27:03;6.97;;;3.53;;
76409;SDS011;65238;42.662;23.280;2024-03-07T07:29:29;4.55;;;3.33;;
76409;SDS011;65238;42.662;23.280;2024-03-07T07:31:54;5.80;;;3.78;;
76409;SDS011;65238;42.662;23.280;2024-03-07T07:34:20;5.22;;;3.25;;
76409;SDS011;65238;42.662;23.280;2024-03-07T07:36:45;7.25;;;4.00;;
76409;SDS011;65238;42.662;23.280;2024-03-07T07:39:11;4.60;;;3.13;;
76409;SDS011;65238;42.662;23.280;2024-03-07T07:41:42;5.82;;;3.90;;
76409;SDS011;65238;42.662;23.280;2024-03-07T07:44:08;7.07;;;4.25;;
76409;SDS011;65238;42.662;23.280;2024-03-07T07:46:34;8.13;;;4.88;;
76409;SDS011;65238;42.662;23.280;2024-03-07T07:49:00;5.90;;;4.10;;
76409;SDS011;65238;42.662;23.280;2024-03-07T07:51:27;7.47;;;4.22;;
76409;SDS011;65238;42.662;23.280;2024-03-07T07:53:53;7.35;;;4.25;;
76409;SDS011;65238;42.662;23.280;2024-03-07T07:56:21;7.57;;;5.00;;
76409;SDS011;65238;42.662;23.280;2024-03-07T07:58:47;6.97;;;4.30;;
76409;SDS011;65238;42.662;23.280;2024-03-07T08:01:14;7.03;;;4.80;;
76409;SDS011;65238;42.662;23.280;2024-03-07T08:03:42;7.25;;;4.57;;
76409;SDS011;65238;42.662;23.280;2024-03-07T08:06:08;7.55;;;4.85;;
76409;SDS011;65238;42.662;23.280;2024-03-07T08:08:34;6.20;;;4.07;;
76409;SDS011;65238;42.662;23.280;2024-03-07T08:11:00;6.05;;;4.05;;
76409;SDS011;65238;42.662;23.280;2024-03-07T08:13:26;6.45;;;4.15;;
76409;SDS011;65238;42.662;23.280;2024-03-07T08:15:51;6.93;;;3.63;;
76409;SDS011;65238;42.662;23.280;2024-03-07T08:18:18;7.88;;;3.90;;
76409;SDS011;65238;42.662;23.280;2024-03-07T08:20:45;5.95;;;4.45;;
76409;SDS011;65238;42.662;23.280;2024-03-07T08:23:10;6.63;;;4.25;;
76409;SDS011;65238;42.662;23.280;2024-03-07T08:25:38;9.13;;;5.75;;
76409;SDS011;65238;42.662;23.280;2024-03-07T08:28:05;10.48;;;5.55;;
76409;SDS011;65238;42.662;23.280;2024-03-07T08:30:31;10.75;;;6.13;;
76409;SDS011;65238;42.662;23.280;2024-03-07T08:32:56;9.27;;;5.72;;
76409;SDS011;65238;42.662;23.280;2024-03-07T08:35:24;8.32;;;5.70;;
76409;SDS011;65238;42.662;23.280;2024-03-07T08:37:50;9.10;;;5.68;;
76409;SDS011;65238;42.662;23.280;2024-03-07T08:40:20;9.50;;;5.90;;
76409;SDS011;65238;42.662;23.280;2024-03-07T08:42:47;8.75;;;5.97;;
76409;SDS011;65238;42.662;23.280;2024-03-07T08:45:13;10.35;;;6.22;;
76409;SDS011;65238;42.662;23.280;2024-03-07T08:47:44;9.13;;;5.95;;
76409;SDS011;65238;42.662;23.280;2024-03-07T08:50:13;11.52;;;6.20;;
76409;SDS011;65238;42.662;23.280;2024-03-07T08:52:40;9.50;;;6.30;;
76409;SDS011;65238;42.662;23.280;2024-03-07T08:55:06;11.07;;;5.88;;
76409;SDS011;65238;42.662;23.280;2024-03-07T08:57:34;8.05;;;5.55;;
76409;SDS011;65238;42.662;23.280;2024-03-07T09:00:02;11.07;;;5.20;;
76409;SDS011;65238;42.662;23.280;2024-03-07T09:02:34;8.93;;;5.88;;
76409;SDS011;65238;42.662;23.280;2024-03-07T09:05:03;9.23;;;5.80;;
76409;SDS011;65238;42.662;23.280;2024-03-07T09:07:29;9.20;;;6.10;;
76409;SDS011;65238;42.662;23.280;2024-03-07T09:09:58;6.95;;;5.13;;
76409;SDS011;65238;42.662;23.280;2024-03-07T09:12:23;7.90;;;5.60;;
76409;SDS011;65238;42.662;23.280;2024-03-07T09:14:52;7.75;;;5.30;;
76409;SDS011;65238;42.662;23.280;2024-03-07T09:17:18;8.88;;;5.75;;
76409;SDS011;65238;42.662;23.280;2024-03-07T09:19:43;8.70;;;5.38;;
76409;SDS011;65238;42.662;23.280;2024-03-07T09:22:10;9.63;;;6.13;;
76409;SDS011;65238;42.662;23.280;2024-03-07T09:24:36;8.15;;;5.57;;
76409;SDS011;65238;42.662;23.280;2024-03-07T09:27:05;8.23;;;5.85;;
76409;SDS011;65238;42.662;23.280;2024-03-07T09:29:31;9.68;;;6.18;;
76409;SDS011;65238;42.662;23.280;2024-03-07T09:31:59;9.93;;;6.07;;
76409;SDS011;65238;42.662;23.280;2024-03-07T09:34:25;13.15;;;6.50;;
76409;SDS011;65238;42.662;23.280;2024-03-07T09:36:50;12.45;;;5.82;;
76409;SDS011;65238;42.662;23.280;2024-03-07T09:39:19;8.52;;;5.80;;
76409;SDS011;65238;42.662;23.280;2024-03-07T09:41:44;8.40;;;5.30;;
76409;SDS011;65238;42.662;23.280;2024-03-07T09:44:17;6.95;;;4.85;;
76409;SDS011;65238;42.662;23.280;2024-03-07T09:46:47;7.80;;;5.15;;
76409;SDS011;65238;42.662;23.280;2024-03-07T09:49:14;6.43;;;4.75;;
76409;SDS011;65238;42.662;23.280;2024-03-07T09:51:39;8.63;;;5.10;;
76409;SDS011;65238;42.662;23.280;2024-03-07T09:54:05;11.48;;;5.28;;
76409;SDS011;65238;42.662;23.280;2024-03-07T09:56:31;8.82;;;5.45;;
76409;SDS011;65238;42.662;23.280;2024-03-07T10:01:32;9.82;;;5.70;;
76409;SDS011;65238;42.662;23.280;2024-03-07T10:04:01;11.07;;;6.25;;
76409;SDS011;65238;42.662;23.280;2024-03-07T10:06:37;8.05;;;5.57;;
76409;SDS011;65238;42.662;23.280;2024-03-07T10:09:10;10.48;;;6.90;;
76409;SDS011;65238;42.662;23.280;2024-03-07T10:11:39;10.90;;;7.13;;
76409;SDS011;65238;42.662;23.280;2024-03-07T10:14:09;10.88;;;6.72;;
76409;SDS011;65238;42.662;23.280;2024-03-07T10:16:34;10.85;;;6.43;;
76409;SDS011;65238;42.662;23.280;2024-03-07T10:19:03;9.40;;;6.00;;
76409;SDS011;65238;42.662;23.280;2024-03-07T10:21:29;8.30;;;6.00;;
76409;SDS011;65238;42.662;23.280;2024-03-07T10:24:04;8.98;;;6.07;;
76409;SDS011;65238;42.662;23.280;2024-03-07T10:26:39;8.48;;;6.13;;
76409;SDS011;65238;42.662;23.280;2024-03-07T10:29:05;8.98;;;5.72;;
76409;SDS011;65238;42.662;23.280;2024-03-07T10:31:33;9.73;;;6.72;;
76409;SDS011;65238;42.662;23.280;2024-03-07T10:34:00;9.20;;;6.57;;
76409;SDS011;65238;42.662;23.280;2024-03-07T10:36:27;10.18;;;6.72;;
76409;SDS011;65238;42.662;23.280;2024-03-07T10:38:59;8.48;;;6.32;;
76409;SDS011;65238;42.662;23.280;2024-03-07T10:41:47;15.00;;;6.95;;
76409;SDS011;65238;42.662;23.280;2024-03-07T10:44:18;10.02;;;6.57;;
76409;SDS011;65238;42.662;23.280;2024-03-07T10:46:45;13.27;;;7.97;;
76409;SDS011;65238;42.662;23.280;2024-03-07T10:49:12;11.27;;;6.80;;
76409;SDS011;65238;42.662;23.280;2024-03-07T10:51:43;10.93;;;6.20;;
76409;SDS011;65238;42.662;23.280;2024-03-07T10:57:01;15.18;;;7.70;;
76409;SDS011;65238;42.662;23.280;2024-03-07T10:59:31;12.20;;;7.03;;
76409;SDS011;65238;42.662;23.280;2024-03-07T11:04:49;13.27;;;7.25;;
76409;SDS011;65238;42.662;23.280;2024-03-07T11:07:17;10.77;;;6.75;;
76409;SDS011;65238;42.662;23.280;2024-03-07T11:09:45;9.52;;;7.05;;
76409;SDS011;65238;42.662;23.280;2024-03-07T11:12:12;12.57;;;7.15;;
76409;SDS011;65238;42.662;23.280;2024-03-07T11:14:43;9.65;;;6.88;;
76409;SDS011;65238;42.662;23.280;2024-03-07T11:17:09;10.35;;;6.72;;
76409;SDS011;65238;42.662;23.280;2024-03-07T11:19:38;11.85;;;6.80;;
76409;SDS011;65238;42.662;23.280;2024-03-07T11:22:04;10.18;;;6.03;;
76409;SDS011;65238;42.662;23.280;2024-03-07T11:24:40;10.82;;;6.32;;
76409;SDS011;65238;42.662;23.280;2024-03-07T11:27:23;9.73;;;5.43;;
76409;SDS011;65238;42.662;23.280;2024-03-07T11:29:50;8.15;;;5.00;;
76409;SDS011;65238;42.662;23.280;2024-03-07T11:32:18;8.40;;;4.70;;
76409;SDS011;65238;42.662;23.280;2024-03-07T11:34:48;10.93;;;4.60;;
76409;SDS011;65238;42.662;23.280;2024-03-07T11:37:18;8.40;;;4.43;;
76409;SDS011;65238;42.662;23.280;2024-03-07T11:39:47;5.82;;;4.07;;
76409;SDS011;65238;42.662;23.280;2024-03-07T11:42:19;6.30;;;4.38;;
76409;SDS011;65238;42.662;23.280;2024-03-07T11:47:14;10.05;;;4.35;;
76409;SDS011;65238;42.662;23.280;2024-03-07T11:49:39;7.30;;;4.20;;
76409;SDS011;65238;42.662;23.280;2024-03-07T11:52:05;7.32;;;4.40;;
76409;SDS011;65238;42.662;23.280;2024-03-07T11:54:38;6.18;;;4.03;;
76409;SDS011;65238;42.662;23.280;2024-03-07T11:57:20;6.03;;;4.20;;
76409;SDS011;65238;42.662;23.280;2024-03-07T11:59:51;10.65;;;5.10;;
76409;SDS011;65238;42.662;23.280;2024-03-07T12:02:18;8.30;;;5.00;;
76409;SDS011;65238;42.662;23.280;2024-03-07T12:04:49;10.10;;;5.38;;
76409;SDS011;65238;42.662;23.280;2024-03-07T12:07:15;8.85;;;5.40;;
76409;SDS011;65238;42.662;23.280;2024-03-07T12:09:42;7.32;;;4.68;;
76409;SDS011;65238;42.662;23.280;2024-03-07T12:12:16;10.98;;;5.80;;
76409;SDS011;65238;42.662;23.280;2024-03-07T12:14:42;8.27;;;5.00;;
76409;SDS011;65238;42.662;23.280;2024-03-07T12:17:08;10.88;;;4.00;;
76409;SDS011;65238;42.662;23.280;2024-03-07T12:19:34;8.35;;;4.70;;
76409;SDS011;65238;42.662;23.280;2024-03-07T12:22:03;7.80;;;4.35;;
76409;SDS011;65238;42.662;23.280;2024-03-07T12:24:34;6.20;;;4.60;;
76409;SDS011;65238;42.662;23.280;2024-03-07T12:27:08;6.47;;;4.10;;
76409;SDS011;65238;42.662;23.280;2024-03-07T12:29:35;6.00;;;3.85;;
76409;SDS011;65238;42.662;23.280;2024-03-07T12:32:05;5.93;;;4.15;;
76409;SDS011;65238;42.662;23.280;2024-03-07T12:34:32;9.63;;;5.82;;
76409;SDS011;65238;42.662;23.280;2024-03-07T12:37:01;6.18;;;3.70;;
76409;SDS011;65238;42.662;23.280;2024-03-07T12:39:28;6.18;;;3.72;;
76409;SDS011;65238;42.662;23.280;2024-03-07T12:44:26;5.97;;;3.75;;
76409;SDS011;65238;42.662;23.280;2024-03-07T12:46:52;7.57;;;3.78;;
76409;SDS011;65238;42.662;23.280;2024-03-07T12:49:24;7.88;;;3.47;;
76409;SDS011;65238;42.662;23.280;2024-03-07T12:54:24;7.35;;;4.15;;
76409;SDS011;65238;42.662;23.280;2024-03-07T12:56:49;6.47;;;4.13;;
76409;SDS011;65238;42.662;23.280;2024-03-07T12:59:15;6.57;;;3.83;;
76409;SDS011;65238;42.662;23.280;2024-03-07T13:01:41;12.90;;;7.45;;
76409;SDS011;65238;42.662;23.280;2024-03-07T13:04:10;7.53;;;4.38;;
76409;SDS011;65238;42.662;23.280;2024-03-07T13:06:36;5.38;;;3.83;;
76409;SDS011;65238;42.662;23.280;2024-03-07T13:09:02;8.23;;;5.05;;
76409;SDS011;65238;42.662;23.280;2024-03-07T13:11:28;7.60;;;4.68;;
76409;SDS011;65238;42.662;23.280;2024-03-07T13:13:55;9.48;;;4.45;;
76409;SDS011;65238;42.662;23.280;2024-03-07T13:16:21;8.85;;;5.15;;
76409;SDS011;65238;42.662;23.280;2024-03-07T13:18:53;8.18;;;5.50;;
76409;SDS011;65238;42.662;23.280;2024-03-07T13:21:19;12.13;;;5.88;;
76409;SDS011;65238;42.662;23.280;2024-03-07T13:23:47;12.45;;;7.05;;
76409;SDS011;65238;42.662;23.280;2024-03-07T13:26:12;10.18;;;3.88;;
76409;SDS011;65238;42.662;23.280;2024-03-07T13:28:45;4.07;;;2.42;;
76409;SDS011;65238;42.662;23.280;2024-03-07T13:31:12;3.53;;;2.10;;
76409;SDS011;65238;42.662;23.280;2024-03-07T13:33:38;5.22;;;2.45;;
76409;SDS011;65238;42.662;23.280;2024-03-07T13:36:03;6.32;;;2.33;;
76409;SDS011;65238;42.662;23.280;2024-03-07T13:38:29;5.57;;;2.80;;
76409;SDS011;65238;42.662;23.280;2024-03-07T13:40:55;6.00;;;2.90;;
76409;SDS011;65238;42.662;23.280;2024-03-07T13:43:22;6.07;;;2.42;;
76409;SDS011;65238;42.662;23.280;2024-03-07T13:45:48;6.28;;;2.45;;
76409;SDS011;65238;42.662;23.280;2024-03-07T13:48:16;6.75;;;2.80;;
76409;SDS011;65238;42.662;23.280;2024-03-07T13:50:42;6.88;;;3.30;;
76409;SDS011;65238;42.662;23.280;2024-03-07T13:53:11;5.88;;;2.95;;
76409;SDS011;65238;42.662;23.280;2024-03-07T14:03:50;6.60;;;3.22;;
76409;SDS011;65238;42.662;23.280;2024-03-07T14:20:35;8.45;;;4.35;;
76409;SDS011;65238;42.662;23.280;2024-03-07T14:31:10;8.15;;;4.15;;
76409;SDS011;65238;42.662;23.280;2024-03-07T14:36:37;12.05;;;6.22;;
76409;SDS011;65238;42.662;23.280;2024-03-07T14:39:03;11.63;;;5.90;;
76409;SDS011;65238;42.662;23.280;2024-03-07T14:41:47;9.30;;;5.28;;
76409;SDS011;65238;42.662;23.280;2024-03-07T14:44:16;10.25;;;4.90;;
76409;SDS011;65238;42.662;23.280;2024-03-07T14:46:43;11.20;;;5.78;;
76409;SDS011;65238;42.662;23.280;2024-03-07T14:49:11;9.80;;;5.78;;
76409;SDS011;65238;42.662;23.280;2024-03-07T14:51:39;13.73;;;7.00;;
76409;SDS011;65238;42.662;23.280;2024-03-07T14:54:04;10.70;;;6.47;;
76409;SDS011;65238;42.662;23.280;2024-03-07T14:56:30;14.13;;;7.50;;
76409;SDS011;65238;42.662;23.280;2024-03-07T14:58:56;12.48;;;6.72;;
76409;SDS011;65238;42.662;23.280;2024-03-07T15:01:21;14.27;;;7.72;;
76409;SDS011;65238;42.662;23.280;2024-03-07T15:03:48;18.45;;;11.57;;
76409;SDS011;65238;42.662;23.280;2024-03-07T15:06:14;14.00;;;8.25;;
76409;SDS011;65238;42.662;23.280;2024-03-07T15:08:40;16.30;;;8.90;;
76409;SDS011;65238;42.662;23.280;2024-03-07T15:11:14;13.02;;;7.72;;
76409;SDS011;65238;42.662;23.280;2024-03-07T15:13:45;14.45;;;7.97;;
76409;SDS011;65238;42.662;23.280;2024-03-07T15:16:11;14.65;;;8.27;;